Louis Armstrong New Orleans International Airport
KMSY : now visible

Airfield :











YOU CAN JOIN US ON...

 
LOGIN :

Register | Disclaimer

   EN    FR    IT 

 









Legend :    VFR   Marginal VFR   IFR   Intensive IFR   Very Intensive IFR
Visi :
Ceiling :
>= 8 km
>= 3000ft
5 to 8 km
1000 to 3000 ft
1500m to 5 km
500 to 1000 ft
800 to 1500m
200 to 500 ft
< 800m
< 200 ft
Symbols :   Thunderstorms  Fog  Heavy snow  Heavy precipitations  Wind > 20 kt






- Airport Elevation : 4 ft
- IATA code : MSY


KMSY - Louis Armstrong New Orleans International

CURRENT METAR :
  • 080753Z 07003KT 10SM OVC016 15/11 A3015 RMK AO2 SLP213 T01500106

EXPIRED METARs :
  • 080653Z 11003KT 10SM OVC016 15/10 A3016 RMK AO2 SLP217 T01500100
  • 080553Z 09005KT 10SM OVC018 15/10 A3018 RMK AO2 SLP222 T01500100 10167 20144 401830144 58010

TAF KMSY
Valid from the 08 at 06:00 until the 09 at 12:00 UTC


080520Z 0806/0912 05005KT P6SM BKN020
FM081600 VRB04KT P6SM BKN250
FM082000 23005KT P6SM SCT250
FM082300 18005KT P6SM SCT250



MET'MAP, your aeronautical weather chart ! - Copyright ORBIFLY December 2007 - Disclaimer

ORBIFLY MET'MAP TEAM :

Programming & Development : Alexandra Zaïnal
Concept & original design : Baudouin d'Aumeries
Assistance for programming : Marc-Olivier Méhu
Technical & hardware support : Manuel Goepfert

Contact : metmap@orbifly.com




SOURCES & CREDITS :

   NOAA       Earth
Advisory